createdAt,value
2023-03-12T00:00:11.117Z,92.6
2023-03-12T00:05:13.454Z,78.2
2023-03-12T00:10:15.636Z,43.5
2023-03-12T00:15:17.827Z,28.8
2023-03-12T00:20:19.964Z,15.5
2023-03-12T00:25:22.286Z,10.3
2023-03-12T00:30:24.509Z,7.2
2023-03-12T00:35:26.717Z,5.5
2023-03-12T00:40:28.994Z,4.6
2023-03-12T00:45:31.007Z,4.4
2023-03-12T00:50:33.231Z,3.8
2023-03-12T00:55:35.425Z,3.9
2023-03-12T01:00:37.600Z,4.1
2023-03-12T01:05:39.705Z,3.9
2023-03-12T01:10:42.056Z,3.7
2023-03-12T01:15:44.421Z,3.6
2023-03-12T01:20:46.502Z,3.6
2023-03-12T01:25:48.711Z,3.6
2023-03-12T01:30:50.827Z,3.8
2023-03-12T01:35:53.200Z,3.7
2023-03-12T01:40:56.116Z,3.6
2023-03-12T01:45:58.263Z,3.5
2023-03-12T01:51:00.938Z,3.8
2023-03-12T01:56:03.221Z,4.1
2023-03-12T02:01:05.397Z,3.7
2023-03-12T02:06:08.137Z,3.5
2023-03-12T02:11:10.379Z,3.5
2023-03-12T02:16:12.641Z,3.6
2023-03-12T02:21:15.193Z,3.8
2023-03-12T02:26:19.971Z,3.5
2023-03-12T02:31:22.445Z,3.4
2023-03-12T02:36:24.750Z,3.8
2023-03-12T02:41:26.965Z,3.7
2023-03-12T02:46:29.283Z,4.1
2023-03-12T02:51:32.028Z,3.9
2023-03-12T02:56:34.494Z,3.6
2023-03-12T03:01:37.034Z,3.6
2023-03-12T03:06:39.824Z,3.5
2023-03-12T03:11:42.246Z,4
2023-03-12T03:16:44.321Z,3.7
2023-03-12T03:21:46.527Z,3.9
2023-03-12T03:26:48.670Z,4
2023-03-12T03:31:50.718Z,3.9
2023-03-12T03:36:52.945Z,4.2
2023-03-12T03:41:56.417Z,3.7
2023-03-12T03:47:03.686Z,4.1
2023-03-12T03:52:06.040Z,5
2023-03-12T03:57:08.120Z,6.1
2023-03-12T04:02:10.204Z,6.2
2023-03-12T04:07:12.282Z,6.2
2023-03-12T04:12:14.458Z,6.5
2023-03-12T04:17:16.595Z,5.8
2023-03-12T04:22:19.010Z,5.3
2023-03-12T04:27:21.110Z,4.1
2023-03-12T04:32:23.241Z,3.7
2023-03-12T04:37:25.308Z,3.9
2023-03-12T04:42:28.464Z,3.8
2023-03-12T04:47:30.851Z,3.9
2023-03-12T04:52:36.505Z,3.9
2023-03-12T04:57:38.754Z,4.2
2023-03-12T05:02:40.890Z,4
2023-03-12T05:07:43.102Z,4.7
2023-03-12T05:12:45.347Z,4.7
2023-03-12T05:17:47.493Z,5.1
2023-03-12T05:22:49.799Z,6.7
2023-03-12T05:27:51.963Z,9.2
2023-03-12T05:32:54.056Z,11
2023-03-12T05:37:56.293Z,9.9
2023-03-12T05:42:58.487Z,9.7
2023-03-12T05:48:00.605Z,8.2
2023-03-12T05:53:03.063Z,6.5
2023-03-12T05:58:05.610Z,7
2023-03-12T06:03:08.022Z,7.3
2023-03-12T06:08:10.378Z,5.9
2023-03-12T06:13:12.761Z,5.4
2023-03-12T06:18:15.097Z,6.9
2023-03-12T06:23:18.289Z,32.7
2023-03-12T06:28:23.007Z,98.4
2023-03-12T06:38:27.696Z,42.9
2023-03-12T06:43:31.204Z,11
2023-03-12T06:48:34.015Z,12
2023-03-12T06:53:36.289Z,9
2023-03-12T06:58:42.234Z,7.2
2023-03-12T07:03:44.269Z,6.9
2023-03-12T07:08:46.294Z,6.2
2023-03-12T07:13:48.552Z,7.3
2023-03-12T07:18:50.516Z,7.8
2023-03-12T07:23:53.750Z,8.6
2023-03-12T07:28:56.252Z,10.7
2023-03-12T07:33:58.627Z,9
2023-03-12T07:39:01.435Z,8.1
2023-03-12T07:44:03.930Z,7
2023-03-12T07:49:06.161Z,4.4
2023-03-12T07:54:08.229Z,6.3
2023-03-12T07:59:11.452Z,6.2
2023-03-12T08:04:14.993Z,4.6
2023-03-12T08:09:17.438Z,4.2
2023-03-12T08:14:20.718Z,4.7
2023-03-12T08:19:22.941Z,4.8
2023-03-12T08:24:25.299Z,4.4
2023-03-12T08:29:27.343Z,6.1
2023-03-12T08:34:29.435Z,6.8
2023-03-12T08:39:31.513Z,4.6
2023-03-12T08:44:33.744Z,4.6
2023-03-12T08:49:36.033Z,4.5
2023-03-12T08:54:38.024Z,3.9
2023-03-12T08:59:39.958Z,7.6
2023-03-12T09:04:42.073Z,10
2023-03-12T09:09:44.391Z,10.3
2023-03-12T09:15:16.506Z,14.2
2023-03-12T09:19:48.761Z,20.9
2023-03-12T09:24:51.018Z,17.6
2023-03-12T09:30:02.096Z,19.1
2023-03-12T09:34:55.711Z,18.5
2023-03-12T09:39:58.045Z,13
2023-03-12T09:45:00.087Z,21.9
2023-03-12T09:50:03.430Z,21.4
2023-03-12T09:55:05.912Z,11
2023-03-12T10:00:08.103Z,12.2
2023-03-12T10:05:10.091Z,14
2023-03-12T10:10:15.481Z,9.5
2023-03-12T10:15:17.529Z,13
2023-03-12T10:20:19.692Z,14.4
2023-03-12T10:25:22.173Z,6
2023-03-12T10:30:25.251Z,5.7
2023-03-12T10:35:27.366Z,7.2
2023-03-12T10:40:29.437Z,6.4
2023-03-12T10:45:31.537Z,8.2
2023-03-12T10:50:33.733Z,11.8
2023-03-12T10:55:35.684Z,12.3
2023-03-12T11:00:38.188Z,8.4
2023-03-12T11:05:40.364Z,6.6
2023-03-12T11:10:42.627Z,7
2023-03-12T11:15:44.791Z,7
2023-03-12T11:20:47.244Z,6.4
2023-03-12T11:25:49.516Z,4
2023-03-12T11:30:51.603Z,8.3
2023-03-12T11:35:53.820Z,8.2
2023-03-12T11:40:55.921Z,7
2023-03-12T11:45:57.898Z,6.5
2023-03-12T11:51:00.149Z,6.9
2023-03-12T11:56:04.609Z,5.2
2023-03-12T12:01:07.082Z,5.3
2023-03-12T12:06:09.099Z,5
2023-03-12T12:11:11.132Z,4.7
2023-03-12T12:16:13.316Z,4.8
2023-03-12T12:21:15.947Z,4.9
2023-03-12T12:26:18.497Z,4.8
2023-03-12T12:31:21.015Z,4.4
2023-03-12T12:36:23.357Z,5
2023-03-12T12:41:53.201Z,4.8
2023-03-12T12:46:55.233Z,5.1
2023-03-12T12:51:58.360Z,5.4
2023-03-12T12:57:00.602Z,5.4
2023-03-12T13:02:02.653Z,5.4
2023-03-12T13:07:04.707Z,5.3
2023-03-12T13:12:06.723Z,5
2023-03-12T13:17:09.365Z,5.3
2023-03-12T13:22:11.439Z,4.8
2023-03-12T13:27:13.963Z,4.6
2023-03-12T13:32:16.262Z,4.2
2023-03-12T13:37:18.418Z,5.1
2023-03-12T13:42:20.769Z,5.1
2023-03-12T13:47:24.087Z,5.8
2023-03-12T13:52:26.425Z,5.9
2023-03-12T13:57:28.480Z,6.5
2023-03-12T14:02:30.718Z,5.7
2023-03-12T14:07:31.202Z,5.4
2023-03-12T14:12:34.103Z,5.9
2023-03-12T14:17:36.311Z,4.3
2023-03-12T14:22:38.306Z,4.3
2023-03-12T14:27:40.596Z,4.6
2023-03-12T14:32:46.041Z,5.4
2023-03-12T14:37:48.659Z,4.8
2023-03-12T14:42:50.543Z,5.2
2023-03-12T14:47:54.804Z,5.3
2023-03-12T14:52:58.868Z,6.1
2023-03-12T14:58:01.787Z,5.8
2023-03-12T15:03:06.416Z,5.5
2023-03-12T15:08:08.637Z,4.9
2023-03-12T15:13:10.763Z,5.9
2023-03-12T15:18:12.832Z,5.9
2023-03-12T15:23:16.339Z,5.7
2023-03-12T15:28:19.592Z,8.2
2023-03-12T15:33:22.909Z,6.2
2023-03-12T15:38:25.514Z,5.1
2023-03-12T15:43:27.688Z,5.1
2023-03-12T15:48:31.261Z,4.9
2023-03-12T15:53:33.941Z,5.4
2023-03-12T15:58:37.370Z,5.9
2023-03-12T16:03:39.812Z,5.2
2023-03-12T16:08:41.997Z,5.8
2023-03-12T16:13:44.063Z,5
2023-03-12T16:18:46.325Z,4.4
2023-03-12T16:23:49.096Z,5.2
2023-03-12T16:28:51.731Z,5.3
2023-03-12T16:33:54.275Z,5.7
2023-03-12T16:39:03.901Z,5.6
2023-03-12T16:44:00.974Z,6.5
2023-03-12T16:49:04.223Z,6.1
2023-03-12T16:54:12.692Z,5.1
2023-03-12T16:59:16.853Z,5.4
2023-03-12T17:04:19.305Z,8.4
2023-03-12T17:09:21.659Z,9.5
2023-03-12T17:14:23.833Z,14.3
2023-03-12T17:19:26.006Z,10.5
2023-03-12T17:24:28.138Z,17.9
2023-03-12T17:29:30.531Z,16.6
2023-03-12T17:34:32.691Z,13.3
2023-03-12T17:39:34.748Z,13.1
2023-03-12T17:44:36.872Z,15.4
2023-03-12T17:49:39.042Z,15.1
2023-03-12T17:54:41.163Z,12.4
2023-03-12T17:59:43.514Z,10.2
2023-03-12T18:04:47.039Z,11.2
2023-03-12T18:09:52.099Z,11.1
2023-03-12T18:14:54.266Z,10.8
2023-03-12T18:19:56.574Z,8.9
2023-03-12T18:25:01.388Z,8.4
2023-03-12T18:30:05.273Z,7.9
2023-03-12T18:35:07.634Z,7.5
2023-03-12T18:40:11.206Z,8.5
2023-03-12T18:45:21.003Z,10.4
2023-03-12T18:50:24.377Z,9.5
2023-03-12T18:55:26.683Z,9.8
2023-03-12T19:00:29.954Z,11.9
2023-03-12T19:05:32.178Z,11.6
2023-03-12T19:10:40.736Z,10.2
2023-03-12T19:15:38.036Z,10.8
2023-03-12T19:20:40.174Z,11.2
2023-03-12T19:25:42.274Z,11.5
2023-03-12T19:30:44.629Z,12.7
2023-03-12T19:35:46.873Z,11.7
2023-03-12T19:40:49.284Z,12.9
2023-03-12T19:45:51.616Z,11.8
2023-03-12T19:50:54.309Z,11.3
2023-03-12T19:55:58.520Z,11.1
2023-03-12T20:01:00.650Z,11.4
2023-03-12T20:06:04.771Z,11.4
2023-03-12T20:11:07.157Z,10.1
2023-03-12T20:16:10.420Z,11.1
2023-03-12T20:21:14.522Z,11
2023-03-12T20:26:16.944Z,10.4
2023-03-12T20:31:19.756Z,10
2023-03-12T20:36:22.051Z,9.9
2023-03-12T20:41:24.281Z,9.2
2023-03-12T20:46:26.753Z,9.3
2023-03-12T20:51:29.401Z,9.3
2023-03-12T20:56:31.485Z,9
2023-03-12T21:01:33.780Z,9.9
2023-03-12T21:06:36.821Z,10.3
2023-03-12T21:11:38.980Z,11.2
2023-03-12T21:16:41.350Z,9.8
2023-03-12T21:21:43.824Z,9.2
2023-03-12T21:26:48.010Z,8.6
2023-03-12T21:31:50.943Z,8.7
2023-03-12T21:36:53.258Z,9.8
2023-03-12T21:41:55.468Z,10.2
2023-03-12T21:46:57.566Z,9.8
2023-03-12T21:51:59.756Z,9.6
2023-03-12T21:57:03.772Z,9.2
2023-03-12T22:02:06.234Z,9.7
2023-03-12T22:07:08.643Z,9.5
2023-03-12T22:12:11.220Z,8.9
2023-03-12T22:17:13.841Z,8.9
2023-03-12T22:22:16.245Z,8.2
2023-03-12T22:27:18.454Z,8.5
2023-03-12T22:32:20.906Z,8.7
2023-03-12T22:37:23.246Z,9.1
2023-03-12T22:42:25.640Z,8.8
2023-03-12T22:47:27.870Z,7.8
2023-03-12T22:52:30.078Z,8.5
2023-03-12T22:57:33.429Z,8.4
2023-03-12T23:02:35.575Z,10
2023-03-12T23:07:38.327Z,10
2023-03-12T23:12:42.033Z,9.4
2023-03-12T23:17:44.130Z,9.6
2023-03-12T23:22:46.250Z,10.6
2023-03-12T23:27:48.330Z,10.4
2023-03-12T23:32:50.602Z,10.3
2023-03-12T23:37:53.669Z,11.1
2023-03-12T23:42:55.898Z,10.4
2023-03-12T23:47:58.734Z,9.9
2023-03-12T23:53:05.005Z,10.5
2023-03-12T23:58:07.240Z,11.7
